sensor_id;sensor_type;location;lat;lon;timestamp;P1;durP1;ratioP1;P2;durP2;ratioP2
35074;SDS011;21260;34.984;32.490;2022-09-09T00:04:29;2.27;;;1.60;;
35074;SDS011;21260;34.984;32.490;2022-09-09T00:18:57;3.73;;;1.93;;
35074;SDS011;21260;34.984;32.490;2022-09-09T00:27:24;4.37;;;2.00;;
35074;SDS011;21260;34.984;32.490;2022-09-09T00:32:58;2.67;;;1.90;;
35074;SDS011;21260;34.984;32.490;2022-09-09T00:35:40;3.23;;;1.77;;
35074;SDS011;21260;34.984;32.490;2022-09-09T00:38:32;2.80;;;1.80;;
35074;SDS011;21260;34.984;32.490;2022-09-09T00:41:11;1.93;;;1.60;;
35074;SDS011;21260;34.984;32.490;2022-09-09T00:44:03;5.80;;;1.80;;
35074;SDS011;21260;34.984;32.490;2022-09-09T00:53:27;4.90;;;2.03;;
35074;SDS011;21260;34.984;32.490;2022-09-09T00:56:40;3.50;;;1.73;;
35074;SDS011;21260;34.984;32.490;2022-09-09T01:02:16;2.60;;;1.60;;
35074;SDS011;21260;34.984;32.490;2022-09-09T01:11:05;3.03;;;1.67;;
35074;SDS011;21260;34.984;32.490;2022-09-09T01:13:56;2.47;;;1.70;;
35074;SDS011;21260;34.984;32.490;2022-09-09T01:16:56;3.00;;;1.60;;
35074;SDS011;21260;34.984;32.490;2022-09-09T01:19:37;2.40;;;1.73;;
35074;SDS011;21260;34.984;32.490;2022-09-09T01:22:15;2.83;;;1.80;;
35074;SDS011;21260;34.984;32.490;2022-09-09T01:28:02;2.77;;;1.70;;
35074;SDS011;21260;34.984;32.490;2022-09-09T01:30:38;3.23;;;1.80;;
35074;SDS011;21260;34.984;32.490;2022-09-09T01:33:07;3.53;;;1.67;;
35074;SDS011;21260;34.984;32.490;2022-09-09T01:38:26;2.80;;;1.70;;
35074;SDS011;21260;34.984;32.490;2022-09-09T01:40:55;3.40;;;1.87;;
35074;SDS011;21260;34.984;32.490;2022-09-09T01:43:21;2.83;;;1.90;;
35074;SDS011;21260;34.984;32.490;2022-09-09T01:45:51;2.40;;;1.47;;
35074;SDS011;21260;34.984;32.490;2022-09-09T01:48:21;1.90;;;1.43;;
35074;SDS011;21260;34.984;32.490;2022-09-09T01:50:51;2.83;;;1.90;;
35074;SDS011;21260;34.984;32.490;2022-09-09T01:53:18;2.23;;;1.77;;
35074;SDS011;21260;34.984;32.490;2022-09-09T01:56:33;4.97;;;1.80;;
35074;SDS011;21260;34.984;32.490;2022-09-09T02:02:17;4.50;;;1.80;;
35074;SDS011;21260;34.984;32.490;2022-09-09T02:05:06;2.70;;;1.67;;
35074;SDS011;21260;34.984;32.490;2022-09-09T02:08:06;2.43;;;1.70;;
35074;SDS011;21260;34.984;32.490;2022-09-09T02:10:45;2.10;;;1.47;;
35074;SDS011;21260;34.984;32.490;2022-09-09T02:13:21;3.27;;;1.77;;
35074;SDS011;21260;34.984;32.490;2022-09-09T02:16:00;2.23;;;1.80;;
35074;SDS011;21260;34.984;32.490;2022-09-09T02:19:01;2.87;;;1.73;;
35074;SDS011;21260;34.984;32.490;2022-09-09T02:21:41;6.37;;;1.80;;
35074;SDS011;21260;34.984;32.490;2022-09-09T02:24:11;2.43;;;1.73;;
35074;SDS011;21260;34.984;32.490;2022-09-09T02:26:41;2.83;;;1.60;;
35074;SDS011;21260;34.984;32.490;2022-09-09T02:29:22;2.87;;;1.70;;
35074;SDS011;21260;34.984;32.490;2022-09-09T02:32:01;3.40;;;1.87;;
35074;SDS011;21260;34.984;32.490;2022-09-09T02:34:35;3.77;;;1.73;;
35074;SDS011;21260;34.984;32.490;2022-09-09T02:37:13;2.60;;;1.73;;
35074;SDS011;21260;34.984;32.490;2022-09-09T02:39:44;2.53;;;1.70;;
35074;SDS011;21260;34.984;32.490;2022-09-09T02:42:11;5.03;;;2.20;;
35074;SDS011;21260;34.984;32.490;2022-09-09T02:44:40;3.67;;;2.13;;
35074;SDS011;21260;34.984;32.490;2022-09-09T02:50:11;3.63;;;1.90;;
35074;SDS011;21260;34.984;32.490;2022-09-09T02:53:07;4.33;;;1.90;;
35074;SDS011;21260;34.984;32.490;2022-09-09T02:55:58;2.10;;;1.90;;
35074;SDS011;21260;34.984;32.490;2022-09-09T02:58:38;4.80;;;2.13;;
35074;SDS011;21260;34.984;32.490;2022-09-09T03:01:06;4.97;;;1.77;;
35074;SDS011;21260;34.984;32.490;2022-09-09T03:03:35;2.83;;;1.63;;
35074;SDS011;21260;34.984;32.490;2022-09-09T03:06:03;2.30;;;1.80;;
35074;SDS011;21260;34.984;32.490;2022-09-09T03:08:30;3.50;;;1.70;;
35074;SDS011;21260;34.984;32.490;2022-09-09T03:10:58;5.03;;;2.07;;
35074;SDS011;21260;34.984;32.490;2022-09-09T03:13:28;2.90;;;1.80;;
35074;SDS011;21260;34.984;32.490;2022-09-09T03:15:54;2.20;;;1.50;;
35074;SDS011;21260;34.984;32.490;2022-09-09T03:18:21;3.10;;;2.00;;
35074;SDS011;21260;34.984;32.490;2022-09-09T03:20:48;4.47;;;1.70;;
35074;SDS011;21260;34.984;32.490;2022-09-09T03:23:14;2.50;;;1.83;;
35074;SDS011;21260;34.984;32.490;2022-09-09T03:25:46;2.33;;;1.70;;
35074;SDS011;21260;34.984;32.490;2022-09-09T03:28:17;2.13;;;1.83;;
35074;SDS011;21260;34.984;32.490;2022-09-09T03:30:43;5.33;;;1.90;;
35074;SDS011;21260;34.984;32.490;2022-09-09T03:33:10;3.70;;;1.77;;
35074;SDS011;21260;34.984;32.490;2022-09-09T03:35:37;2.03;;;1.63;;
35074;SDS011;21260;34.984;32.490;2022-09-09T03:38:04;4.37;;;1.93;;
35074;SDS011;21260;34.984;32.490;2022-09-09T03:40:30;3.30;;;1.77;;
35074;SDS011;21260;34.984;32.490;2022-09-09T03:42:58;2.50;;;2.00;;
35074;SDS011;21260;34.984;32.490;2022-09-09T03:45:25;2.47;;;1.73;;
35074;SDS011;21260;34.984;32.490;2022-09-09T03:47:51;4.50;;;1.90;;
35074;SDS011;21260;34.984;32.490;2022-09-09T03:50:18;3.30;;;1.60;;
35074;SDS011;21260;34.984;32.490;2022-09-09T03:52:44;5.03;;;1.90;;
35074;SDS011;21260;34.984;32.490;2022-09-09T03:55:12;3.60;;;2.00;;
35074;SDS011;21260;34.984;32.490;2022-09-09T03:57:39;4.17;;;2.00;;
35074;SDS011;21260;34.984;32.490;2022-09-09T04:00:06;5.23;;;1.97;;
35074;SDS011;21260;34.984;32.490;2022-09-09T04:02:33;3.80;;;2.10;;
35074;SDS011;21260;34.984;32.490;2022-09-09T04:05:00;3.63;;;1.90;;
35074;SDS011;21260;34.984;32.490;2022-09-09T04:07:26;5.93;;;2.07;;
35074;SDS011;21260;34.984;32.490;2022-09-09T04:09:53;7.23;;;2.00;;
35074;SDS011;21260;34.984;32.490;2022-09-09T04:12:19;6.57;;;1.80;;
35074;SDS011;21260;34.984;32.490;2022-09-09T04:14:47;5.00;;;1.80;;
35074;SDS011;21260;34.984;32.490;2022-09-09T04:17:14;6.77;;;2.00;;
35074;SDS011;21260;34.984;32.490;2022-09-09T04:19:42;2.40;;;1.67;;
35074;SDS011;21260;34.984;32.490;2022-09-09T04:22:09;4.10;;;1.97;;
35074;SDS011;21260;34.984;32.490;2022-09-09T04:24:36;1.97;;;1.70;;
35074;SDS011;21260;34.984;32.490;2022-09-09T04:27:02;3.80;;;1.47;;
35074;SDS011;21260;34.984;32.490;2022-09-09T04:29:29;3.20;;;1.93;;
35074;SDS011;21260;34.984;32.490;2022-09-09T04:31:55;2.90;;;1.67;;
35074;SDS011;21260;34.984;32.490;2022-09-09T04:34:21;8.10;;;1.80;;
35074;SDS011;21260;34.984;32.490;2022-09-09T04:36:47;4.27;;;1.77;;
35074;SDS011;21260;34.984;32.490;2022-09-09T04:39:13;5.90;;;2.00;;
35074;SDS011;21260;34.984;32.490;2022-09-09T04:41:40;10.00;;;2.00;;
35074;SDS011;21260;34.984;32.490;2022-09-09T04:44:06;3.73;;;1.83;;
35074;SDS011;21260;34.984;32.490;2022-09-09T04:46:33;5.53;;;2.13;;
35074;SDS011;21260;34.984;32.490;2022-09-09T04:48:59;2.70;;;1.80;;
35074;SDS011;21260;34.984;32.490;2022-09-09T04:51:26;5.53;;;2.10;;
35074;SDS011;21260;34.984;32.490;2022-09-09T04:53:53;4.20;;;2.07;;
35074;SDS011;21260;34.984;32.490;2022-09-09T04:56:20;4.77;;;2.10;;
35074;SDS011;21260;34.984;32.490;2022-09-09T04:58:47;2.60;;;1.90;;
35074;SDS011;21260;34.984;32.490;2022-09-09T05:01:18;6.07;;;1.90;;
35074;SDS011;21260;34.984;32.490;2022-09-09T05:03:49;6.03;;;1.93;;
35074;SDS011;21260;34.984;32.490;2022-09-09T05:06:19;3.13;;;2.10;;
35074;SDS011;21260;34.984;32.490;2022-09-09T05:08:47;3.77;;;2.00;;
35074;SDS011;21260;34.984;32.490;2022-09-09T05:11:23;2.20;;;1.87;;
35074;SDS011;21260;34.984;32.490;2022-09-09T05:13:55;4.63;;;2.00;;
35074;SDS011;21260;34.984;32.490;2022-09-09T05:16:22;2.57;;;1.73;;
35074;SDS011;21260;34.984;32.490;2022-09-09T05:18:49;3.60;;;1.90;;
35074;SDS011;21260;34.984;32.490;2022-09-09T05:21:16;5.83;;;1.60;;
35074;SDS011;21260;34.984;32.490;2022-09-09T05:23:46;6.30;;;2.10;;
35074;SDS011;21260;34.984;32.490;2022-09-09T05:26:13;2.93;;;1.70;;
35074;SDS011;21260;34.984;32.490;2022-09-09T05:28:43;2.20;;;1.70;;
35074;SDS011;21260;34.984;32.490;2022-09-09T05:31:11;4.83;;;2.10;;
35074;SDS011;21260;34.984;32.490;2022-09-09T05:33:40;2.13;;;1.70;;
35074;SDS011;21260;34.984;32.490;2022-09-09T05:36:15;2.60;;;2.03;;
35074;SDS011;21260;34.984;32.490;2022-09-09T05:38:45;3.23;;;1.87;;
35074;SDS011;21260;34.984;32.490;2022-09-09T05:41:16;3.73;;;2.00;;
35074;SDS011;21260;34.984;32.490;2022-09-09T05:43:48;2.67;;;1.90;;
35074;SDS011;21260;34.984;32.490;2022-09-09T05:46:15;3.40;;;1.80;;
35074;SDS011;21260;34.984;32.490;2022-09-09T05:48:46;5.50;;;2.30;;
35074;SDS011;21260;34.984;32.490;2022-09-09T05:51:19;3.40;;;1.90;;
35074;SDS011;21260;34.984;32.490;2022-09-09T05:53:51;4.57;;;1.90;;
35074;SDS011;21260;34.984;32.490;2022-09-09T05:56:21;4.23;;;2.13;;
35074;SDS011;21260;34.984;32.490;2022-09-09T05:58:50;4.93;;;1.90;;
35074;SDS011;21260;34.984;32.490;2022-09-09T06:01:22;5.40;;;2.08;;
35074;SDS011;21260;34.984;32.490;2022-09-09T06:03:54;2.83;;;2.00;;
35074;SDS011;21260;34.984;32.490;2022-09-09T06:06:21;2.57;;;1.90;;
35074;SDS011;21260;34.984;32.490;2022-09-09T06:08:54;5.10;;;1.80;;
35074;SDS011;21260;34.984;32.490;2022-09-09T06:11:27;3.85;;;2.17;;
35074;SDS011;21260;34.984;32.490;2022-09-09T06:13:56;4.50;;;2.00;;
35074;SDS011;21260;34.984;32.490;2022-09-09T06:16:24;4.68;;;2.58;;
35074;SDS011;21260;34.984;32.490;2022-09-09T06:18:53;3.65;;;2.30;;
35074;SDS011;21260;34.984;32.490;2022-09-09T06:21:33;5.63;;;2.20;;
35074;SDS011;21260;34.984;32.490;2022-09-09T06:24:04;12.75;;;2.65;;
35074;SDS011;21260;34.984;32.490;2022-09-09T06:26:33;5.88;;;2.15;;
35074;SDS011;21260;34.984;32.490;2022-09-09T06:29:06;7.63;;;2.20;;
35074;SDS011;21260;34.984;32.490;2022-09-09T06:31:33;3.90;;;2.00;;
35074;SDS011;21260;34.984;32.490;2022-09-09T06:34:03;4.20;;;2.42;;
35074;SDS011;21260;34.984;32.490;2022-09-09T06:36:32;4.43;;;2.13;;
35074;SDS011;21260;34.984;32.490;2022-09-09T06:39:02;10.82;;;2.10;;
35074;SDS011;21260;34.984;32.490;2022-09-09T06:41:32;4.55;;;2.20;;
35074;SDS011;21260;34.984;32.490;2022-09-09T06:43:59;3.70;;;2.13;;
35074;SDS011;21260;34.984;32.490;2022-09-09T06:46:30;7.68;;;2.50;;
35074;SDS011;21260;34.984;32.490;2022-09-09T06:48:58;5.93;;;1.83;;
35074;SDS011;21260;34.984;32.490;2022-09-09T06:51:29;2.20;;;1.73;;
35074;SDS011;21260;34.984;32.490;2022-09-09T06:53:59;7.03;;;2.13;;
35074;SDS011;21260;34.984;32.490;2022-09-09T06:56:37;5.28;;;2.35;;
35074;SDS011;21260;34.984;32.490;2022-09-09T06:59:10;3.55;;;2.17;;
35074;SDS011;21260;34.984;32.490;2022-09-09T07:01:38;3.50;;;2.00;;
35074;SDS011;21260;34.984;32.490;2022-09-09T07:04:07;7.30;;;2.10;;
35074;SDS011;21260;34.984;32.490;2022-09-09T07:06:41;3.20;;;2.25;;
35074;SDS011;21260;34.984;32.490;2022-09-09T07:09:10;5.18;;;2.20;;
35074;SDS011;21260;34.984;32.490;2022-09-09T07:11:41;5.30;;;2.17;;
35074;SDS011;21260;34.984;32.490;2022-09-09T07:14:13;4.53;;;2.30;;
35074;SDS011;21260;34.984;32.490;2022-09-09T07:16:42;6.05;;;2.30;;
35074;SDS011;21260;34.984;32.490;2022-09-09T07:19:10;6.90;;;2.05;;
35074;SDS011;21260;34.984;32.490;2022-09-09T07:21:39;4.15;;;2.20;;
35074;SDS011;21260;34.984;32.490;2022-09-09T07:24:05;3.92;;;2.17;;
35074;SDS011;21260;34.984;32.490;2022-09-09T07:26:35;3.70;;;2.10;;
35074;SDS011;21260;34.984;32.490;2022-09-09T07:29:02;8.98;;;2.20;;
35074;SDS011;21260;34.984;32.490;2022-09-09T07:31:30;3.20;;;2.10;;
35074;SDS011;21260;34.984;32.490;2022-09-09T07:34:00;2.83;;;2.22;;
35074;SDS011;21260;34.984;32.490;2022-09-09T07:36:29;3.85;;;2.00;;
35074;SDS011;21260;34.984;32.490;2022-09-09T07:39:04;3.60;;;2.10;;
35074;SDS011;21260;34.984;32.490;2022-09-09T07:41:40;7.28;;;2.67;;
35074;SDS011;21260;34.984;32.490;2022-09-09T07:44:15;5.22;;;2.63;;
35074;SDS011;21260;34.984;32.490;2022-09-09T07:46:46;2.95;;;2.20;;
35074;SDS011;21260;34.984;32.490;2022-09-09T07:49:14;5.78;;;2.22;;
35074;SDS011;21260;34.984;32.490;2022-09-09T07:51:42;5.40;;;2.08;;
35074;SDS011;21260;34.984;32.490;2022-09-09T07:54:12;7.03;;;2.17;;
35074;SDS011;21260;34.984;32.490;2022-09-09T07:56:41;3.05;;;1.92;;
35074;SDS011;21260;34.984;32.490;2022-09-09T07:59:10;6.55;;;2.20;;
35074;SDS011;21260;34.984;32.490;2022-09-09T08:01:38;2.92;;;1.95;;
35074;SDS011;21260;34.984;32.490;2022-09-09T08:04:26;3.25;;;1.90;;
35074;SDS011;21260;34.984;32.490;2022-09-09T08:06:54;7.97;;;2.30;;
35074;SDS011;21260;34.984;32.490;2022-09-09T08:09:25;3.90;;;2.30;;
35074;SDS011;21260;34.984;32.490;2022-09-09T08:11:57;5.78;;;2.00;;
35074;SDS011;21260;34.984;32.490;2022-09-09T08:14:25;6.50;;;2.15;;
35074;SDS011;21260;34.984;32.490;2022-09-09T08:16:52;4.90;;;2.30;;
35074;SDS011;21260;34.984;32.490;2022-09-09T08:19:19;5.00;;;1.80;;
35074;SDS011;21260;34.984;32.490;2022-09-09T08:21:46;5.40;;;2.53;;
35074;SDS011;21260;34.984;32.490;2022-09-09T08:24:15;3.80;;;1.90;;
35074;SDS011;21260;34.984;32.490;2022-09-09T08:26:45;3.47;;;2.33;;
35074;SDS011;21260;34.984;32.490;2022-09-09T08:29:16;13.10;;;2.25;;
35074;SDS011;21260;34.984;32.490;2022-09-09T08:31:47;3.80;;;1.77;;
35074;SDS011;21260;34.984;32.490;2022-09-09T08:34:17;4.10;;;1.92;;
35074;SDS011;21260;34.984;32.490;2022-09-09T08:36:45;3.90;;;2.05;;
35074;SDS011;21260;34.984;32.490;2022-09-09T08:39:15;7.38;;;2.05;;
35074;SDS011;21260;34.984;32.490;2022-09-09T08:53:56;7.03;;;2.00;;
35074;SDS011;21260;34.984;32.490;2022-09-09T08:56:27;3.72;;;1.80;;
35074;SDS011;21260;34.984;32.490;2022-09-09T08:58:57;4.28;;;1.77;;
35074;SDS011;21260;34.984;32.490;2022-09-09T09:01:35;5.43;;;2.08;;
35074;SDS011;21260;34.984;32.490;2022-09-09T09:04:37;7.20;;;2.05;;
35074;SDS011;21260;34.984;32.490;2022-09-09T09:12:49;2.55;;;2.00;;
35074;SDS011;21260;34.984;32.490;2022-09-09T09:15:21;5.38;;;2.20;;
35074;SDS011;21260;34.984;32.490;2022-09-09T09:17:52;7.88;;;2.22;;
35074;SDS011;21260;34.984;32.490;2022-09-09T09:20:21;3.35;;;1.92;;
35074;SDS011;21260;34.984;32.490;2022-09-09T09:23:39;6.90;;;1.80;;
35074;SDS011;21260;34.984;32.490;2022-09-09T09:26:24;2.58;;;1.85;;
35074;SDS011;21260;34.984;32.490;2022-09-09T09:28:58;3.80;;;2.00;;
35074;SDS011;21260;34.984;32.490;2022-09-09T09:31:34;3.35;;;2.03;;
35074;SDS011;21260;34.984;32.490;2022-09-09T09:34:01;4.88;;;1.90;;
35074;SDS011;21260;34.984;32.490;2022-09-09T09:36:37;3.30;;;2.08;;
35074;SDS011;21260;34.984;32.490;2022-09-09T09:39:22;3.22;;;1.75;;
35074;SDS011;21260;34.984;32.490;2022-09-09T09:41:49;8.20;;;2.15;;
35074;SDS011;21260;34.984;32.490;2022-09-09T09:47:08;3.17;;;1.95;;
35074;SDS011;21260;34.984;32.490;2022-09-09T09:49:59;5.50;;;2.08;;
35074;SDS011;21260;34.984;32.490;2022-09-09T09:52:31;3.47;;;1.75;;
35074;SDS011;21260;34.984;32.490;2022-09-09T09:55:02;6.25;;;2.05;;
35074;SDS011;21260;34.984;32.490;2022-09-09T09:57:37;4.60;;;1.98;;
35074;SDS011;21260;34.984;32.490;2022-09-09T10:02:46;4.07;;;2.08;;
35074;SDS011;21260;34.984;32.490;2022-09-09T10:05:15;6.85;;;1.70;;
35074;SDS011;21260;34.984;32.490;2022-09-09T10:07:47;4.45;;;2.00;;
35074;SDS011;21260;34.984;32.490;2022-09-09T10:10:41;10.48;;;2.00;;
35074;SDS011;21260;34.984;32.490;2022-09-09T10:16:08;2.75;;;2.05;;
35074;SDS011;21260;34.984;32.490;2022-09-09T10:19:09;5.10;;;1.98;;
35074;SDS011;21260;34.984;32.490;2022-09-09T10:22:08;3.20;;;2.08;;
35074;SDS011;21260;34.984;32.490;2022-09-09T10:24:56;2.58;;;2.00;;
35074;SDS011;21260;34.984;32.490;2022-09-09T10:37:28;5.25;;;2.10;;
35074;SDS011;21260;34.984;32.490;2022-09-09T10:54:47;11.63;;;1.98;;
35074;SDS011;21260;34.984;32.490;2022-09-09T10:57:50;5.78;;;1.75;;
35074;SDS011;21260;34.984;32.490;2022-09-09T11:00:21;4.10;;;2.00;;
35074;SDS011;21260;34.984;32.490;2022-09-09T11:03:01;9.40;;;2.40;;
35074;SDS011;21260;34.984;32.490;2022-09-09T11:05:38;3.65;;;2.00;;
35074;SDS011;21260;34.984;32.490;2022-09-09T11:08:23;6.50;;;2.25;;
35074;SDS011;21260;34.984;32.490;2022-09-09T11:13:35;4.82;;;1.95;;
35074;SDS011;21260;34.984;32.490;2022-09-09T11:16:28;2.80;;;1.90;;
35074;SDS011;21260;34.984;32.490;2022-09-09T11:19:21;7.30;;;2.10;;
35074;SDS011;21260;34.984;32.490;2022-09-09T11:22:12;4.07;;;2.00;;
35074;SDS011;21260;34.984;32.490;2022-09-09T11:37:14;6.88;;;2.25;;
35074;SDS011;21260;34.984;32.490;2022-09-09T11:42:48;6.78;;;2.05;;
35074;SDS011;21260;34.984;32.490;2022-09-09T11:45:28;3.05;;;1.90;;
35074;SDS011;21260;34.984;32.490;2022-09-09T11:47:57;3.88;;;1.80;;
35074;SDS011;21260;34.984;32.490;2022-09-09T11:50:31;8.07;;;2.10;;
35074;SDS011;21260;34.984;32.490;2022-09-09T11:53:06;2.97;;;2.00;;
35074;SDS011;21260;34.984;32.490;2022-09-09T11:55:46;4.13;;;2.22;;
35074;SDS011;21260;34.984;32.490;2022-09-09T12:00:49;3.45;;;1.80;;
35074;SDS011;21260;34.984;32.490;2022-09-09T12:06:16;4.13;;;1.60;;
35074;SDS011;21260;34.984;32.490;2022-09-09T12:09:32;4.78;;;1.92;;
35074;SDS011;21260;34.984;32.490;2022-09-09T12:17:43;6.65;;;1.88;;
35074;SDS011;21260;34.984;32.490;2022-09-09T12:20:16;7.53;;;2.20;;
35074;SDS011;21260;34.984;32.490;2022-09-09T12:25:48;3.22;;;1.73;;
35074;SDS011;21260;34.984;32.490;2022-09-09T12:28:55;4.20;;;2.13;;
35074;SDS011;21260;34.984;32.490;2022-09-09T12:35:20;6.93;;;1.80;;
35074;SDS011;21260;34.984;32.490;2022-09-09T12:37:42;3.92;;;1.70;;
35074;SDS011;21260;34.984;32.490;2022-09-09T12:40:31;7.78;;;2.35;;
35074;SDS011;21260;34.984;32.490;2022-09-09T12:43:20;8.55;;;2.03;;
35074;SDS011;21260;34.984;32.490;2022-09-09T12:45:50;3.15;;;1.77;;
35074;SDS011;21260;34.984;32.490;2022-09-09T12:48:36;8.05;;;2.20;;
35074;SDS011;21260;34.984;32.490;2022-09-09T12:51:18;3.65;;;1.83;;
35074;SDS011;21260;34.984;32.490;2022-09-09T12:53:53;5.47;;;1.83;;
35074;SDS011;21260;34.984;32.490;2022-09-09T12:56:27;4.20;;;2.55;;
35074;SDS011;21260;34.984;32.490;2022-09-09T12:58:57;5.10;;;2.20;;
35074;SDS011;21260;34.984;32.490;2022-09-09T13:01:26;5.82;;;1.90;;
35074;SDS011;21260;34.984;32.490;2022-09-09T13:03:56;4.63;;;2.17;;
35074;SDS011;21260;34.984;32.490;2022-09-09T13:06:25;5.60;;;2.00;;
35074;SDS011;21260;34.984;32.490;2022-09-09T13:08:58;4.45;;;2.17;;
35074;SDS011;21260;34.984;32.490;2022-09-09T13:11:38;4.43;;;1.80;;
35074;SDS011;21260;34.984;32.490;2022-09-09T13:14:16;5.47;;;2.00;;
35074;SDS011;21260;34.984;32.490;2022-09-09T13:16:58;7.80;;;1.90;;
35074;SDS011;21260;34.984;32.490;2022-09-09T13:19:36;8.35;;;2.10;;
35074;SDS011;21260;34.984;32.490;2022-09-09T13:22:11;5.72;;;1.85;;
35074;SDS011;21260;34.984;32.490;2022-09-09T13:27:41;6.80;;;2.03;;
35074;SDS011;21260;34.984;32.490;2022-09-09T13:30:34;6.28;;;2.22;;
35074;SDS011;21260;34.984;32.490;2022-09-09T13:33:19;4.47;;;1.95;;
35074;SDS011;21260;34.984;32.490;2022-09-09T13:35:58;3.22;;;2.00;;
35074;SDS011;21260;34.984;32.490;2022-09-09T13:38:36;6.75;;;1.90;;
35074;SDS011;21260;34.984;32.490;2022-09-09T13:41:26;8.60;;;2.10;;
35074;SDS011;21260;34.984;32.490;2022-09-09T13:44:01;7.95;;;2.40;;
35074;SDS011;21260;34.984;32.490;2022-09-09T13:51:36;9.75;;;2.28;;
35074;SDS011;21260;34.984;32.490;2022-09-09T13:54:08;3.75;;;2.10;;
35074;SDS011;21260;34.984;32.490;2022-09-09T13:56:36;8.63;;;2.50;;
35074;SDS011;21260;34.984;32.490;2022-09-09T13:59:06;4.55;;;1.98;;
35074;SDS011;21260;34.984;32.490;2022-09-09T14:01:41;6.47;;;2.47;;
35074;SDS011;21260;34.984;32.490;2022-09-09T14:04:09;7.50;;;2.30;;
35074;SDS011;21260;34.984;32.490;2022-09-09T14:06:38;2.90;;;2.10;;
35074;SDS011;21260;34.984;32.490;2022-09-09T14:09:07;10.45;;;3.05;;
35074;SDS011;21260;34.984;32.490;2022-09-09T14:11:41;6.45;;;2.22;;
35074;SDS011;21260;34.984;32.490;2022-09-09T14:14:12;4.53;;;2.33;;
35074;SDS011;21260;34.984;32.490;2022-09-09T14:16:40;8.07;;;2.25;;
35074;SDS011;21260;34.984;32.490;2022-09-09T14:19:08;6.95;;;2.50;;
35074;SDS011;21260;34.984;32.490;2022-09-09T14:21:35;5.07;;;2.30;;
35074;SDS011;21260;34.984;32.490;2022-09-09T14:24:01;7.65;;;2.63;;
35074;SDS011;21260;34.984;32.490;2022-09-09T14:26:28;3.92;;;2.20;;
35074;SDS011;21260;34.984;32.490;2022-09-09T14:28:55;5.75;;;2.05;;
35074;SDS011;21260;34.984;32.490;2022-09-09T14:31:22;4.55;;;2.30;;
35074;SDS011;21260;34.984;32.490;2022-09-09T14:33:50;6.63;;;2.35;;
35074;SDS011;21260;34.984;32.490;2022-09-09T14:36:20;3.95;;;2.17;;
35074;SDS011;21260;34.984;32.490;2022-09-09T14:38:50;5.18;;;2.17;;
35074;SDS011;21260;34.984;32.490;2022-09-09T14:41:17;4.35;;;2.35;;
35074;SDS011;21260;34.984;32.490;2022-09-09T14:43:47;6.32;;;2.58;;
35074;SDS011;21260;34.984;32.490;2022-09-09T14:46:15;9.55;;;2.80;;
35074;SDS011;21260;34.984;32.490;2022-09-09T14:48:44;7.57;;;2.60;;
35074;SDS011;21260;34.984;32.490;2022-09-09T14:51:23;4.18;;;2.50;;
35074;SDS011;21260;34.984;32.490;2022-09-09T14:53:53;4.57;;;2.58;;
35074;SDS011;21260;34.984;32.490;2022-09-09T14:56:24;11.18;;;3.00;;
35074;SDS011;21260;34.984;32.490;2022-09-09T14:58:55;9.52;;;3.10;;
35074;SDS011;21260;34.984;32.490;2022-09-09T15:01:29;6.10;;;2.63;;
35074;SDS011;21260;34.984;32.490;2022-09-09T15:03:58;4.20;;;2.63;;
35074;SDS011;21260;34.984;32.490;2022-09-09T15:06:29;4.70;;;2.85;;
35074;SDS011;21260;34.984;32.490;2022-09-09T15:08:59;7.82;;;2.88;;
35074;SDS011;21260;34.984;32.490;2022-09-09T15:11:26;6.03;;;2.90;;
35074;SDS011;21260;34.984;32.490;2022-09-09T15:14:03;6.07;;;2.90;;
35074;SDS011;21260;34.984;32.490;2022-09-09T15:16:31;7.88;;;3.00;;
35074;SDS011;21260;34.984;32.490;2022-09-09T15:18:58;5.88;;;2.80;;
35074;SDS011;21260;34.984;32.490;2022-09-09T15:21:31;6.50;;;2.80;;
35074;SDS011;21260;34.984;32.490;2022-09-09T15:24:01;4.78;;;2.80;;
35074;SDS011;21260;34.984;32.490;2022-09-09T15:26:29;5.85;;;2.50;;
35074;SDS011;21260;34.984;32.490;2022-09-09T15:28:56;6.65;;;3.30;;
35074;SDS011;21260;34.984;32.490;2022-09-09T15:31:28;6.05;;;2.58;;
35074;SDS011;21260;34.984;32.490;2022-09-09T15:33:57;4.30;;;2.80;;
35074;SDS011;21260;34.984;32.490;2022-09-09T15:36:40;5.00;;;2.70;;
35074;SDS011;21260;34.984;32.490;2022-09-09T15:39:10;4.97;;;2.78;;
35074;SDS011;21260;34.984;32.490;2022-09-09T15:41:41;6.30;;;2.90;;
35074;SDS011;21260;34.984;32.490;2022-09-09T15:44:12;4.63;;;2.78;;
35074;SDS011;21260;34.984;32.490;2022-09-09T15:46:42;6.63;;;3.25;;
35074;SDS011;21260;34.984;32.490;2022-09-09T15:49:20;5.15;;;2.90;;
35074;SDS011;21260;34.984;32.490;2022-09-09T15:51:53;4.78;;;2.83;;
35074;SDS011;21260;34.984;32.490;2022-09-09T15:54:23;5.68;;;3.40;;
35074;SDS011;21260;34.984;32.490;2022-09-09T15:56:52;9.30;;;2.92;;
35074;SDS011;21260;34.984;32.490;2022-09-09T15:59:24;6.57;;;3.10;;
35074;SDS011;21260;34.984;32.490;2022-09-09T16:01:54;8.93;;;3.30;;
35074;SDS011;21260;34.984;32.490;2022-09-09T16:04:21;12.00;;;3.35;;
35074;SDS011;21260;34.984;32.490;2022-09-09T16:06:53;5.35;;;3.10;;
35074;SDS011;21260;34.984;32.490;2022-09-09T16:09:23;7.00;;;3.33;;
35074;SDS011;21260;34.984;32.490;2022-09-09T16:11:52;7.43;;;3.22;;
35074;SDS011;21260;34.984;32.490;2022-09-09T16:14:21;7.40;;;3.40;;
35074;SDS011;21260;34.984;32.490;2022-09-09T16:16:48;11.00;;;3.80;;
35074;SDS011;21260;34.984;32.490;2022-09-09T16:19:14;4.90;;;3.10;;
35074;SDS011;21260;34.984;32.490;2022-09-09T16:21:44;5.53;;;3.00;;
35074;SDS011;21260;34.984;32.490;2022-09-09T16:24:14;7.45;;;3.22;;
35074;SDS011;21260;34.984;32.490;2022-09-09T16:26:44;9.90;;;3.63;;
35074;SDS011;21260;34.984;32.490;2022-09-09T16:29:14;4.40;;;3.17;;
35074;SDS011;21260;34.984;32.490;2022-09-09T16:31:43;6.70;;;3.47;;
35074;SDS011;21260;34.984;32.490;2022-09-09T16:34:12;6.15;;;2.90;;
35074;SDS011;21260;34.984;32.490;2022-09-09T16:36:40;5.88;;;3.30;;
35074;SDS011;21260;34.984;32.490;2022-09-09T16:39:10;10.50;;;3.42;;
35074;SDS011;21260;34.984;32.490;2022-09-09T16:41:42;7.78;;;3.55;;
35074;SDS011;21260;34.984;32.490;2022-09-09T16:44:13;10.00;;;3.60;;
35074;SDS011;21260;34.984;32.490;2022-09-09T16:46:43;6.35;;;3.40;;
35074;SDS011;21260;34.984;32.490;2022-09-09T16:49:14;7.38;;;3.35;;
35074;SDS011;21260;34.984;32.490;2022-09-09T16:51:48;6.65;;;3.40;;
35074;SDS011;21260;34.984;32.490;2022-09-09T16:54:19;8.82;;;3.13;;
35074;SDS011;21260;34.984;32.490;2022-09-09T16:56:48;5.57;;;3.33;;
35074;SDS011;21260;34.984;32.490;2022-09-09T16:59:19;4.55;;;3.53;;
35074;SDS011;21260;34.984;32.490;2022-09-09T17:01:50;5.53;;;3.00;;
35074;SDS011;21260;34.984;32.490;2022-09-09T17:04:20;5.40;;;3.08;;
35074;SDS011;21260;34.984;32.490;2022-09-09T17:06:52;4.55;;;3.13;;
35074;SDS011;21260;34.984;32.490;2022-09-09T17:09:21;4.70;;;3.47;;
35074;SDS011;21260;34.984;32.490;2022-09-09T17:11:54;6.85;;;3.72;;
35074;SDS011;21260;34.984;32.490;2022-09-09T17:14:20;6.18;;;3.10;;
35074;SDS011;21260;34.984;32.490;2022-09-09T17:16:49;5.30;;;3.53;;
35074;SDS011;21260;34.984;32.490;2022-09-09T17:19:15;6.85;;;3.55;;
35074;SDS011;21260;34.984;32.490;2022-09-09T17:21:42;4.97;;;3.35;;
35074;SDS011;21260;34.984;32.490;2022-09-09T17:24:10;8.80;;;3.40;;
35074;SDS011;21260;34.984;32.490;2022-09-09T17:26:36;5.00;;;3.60;;
35074;SDS011;21260;34.984;32.490;2022-09-09T17:29:03;7.25;;;4.00;;
35074;SDS011;21260;34.984;32.490;2022-09-09T17:31:30;5.35;;;3.47;;
35074;SDS011;21260;34.984;32.490;2022-09-09T17:33:59;5.22;;;3.80;;